Time;durP1;ratioP1;P1;durP2;ratioP2;P2;SDS_P1;SDS_P2;PMS_P1;PMS_P2;Temp;Humidity;BMP_temperature;BMP_pressure;BME280_temperature;BME280_humidity;BME280_pressure;Samples;Min_cycle;Max_cycle;Signal;HPM_P1;HPM_P2
2021/09/26 00:01:25;;;;;;;2.97;1.98;;;10.90;99.90;;;;;;5054546;28;20021;-84
2021/09/26 00:03:52;;;;;;;5.07;2.53;;;10.80;99.90;;;;;;5054437;28;20482;-85
2021/09/26 00:06:21;;;;;;;2.85;2.35;;;10.80;99.90;;;;;;5053900;28;20017;-84
2021/09/26 00:08:47;;;;;;;2.92;2.28;;;10.80;99.90;;;;;;5054874;28;20061;-85
2021/09/26 00:11:13;;;;;;;4.15;2.60;;;10.80;99.90;;;;;;5054801;28;20078;-87
2021/09/26 00:13:41;;;;;;;3.08;2.40;;;10.80;99.90;;;;;;5056026;28;20056;-87
2021/09/26 00:16:09;;;;;;;2.45;2.25;;;10.80;99.90;;;;;;5054772;28;20021;-88
2021/09/26 00:18:36;;;;;;;3.83;2.10;;;10.70;99.90;;;;;;5038824;28;20044;-87
2021/09/26 00:21:03;;;;;;;3.57;2.50;;;10.70;99.90;;;;;;5045215;28;20021;-85
2021/09/26 00:23:32;;;;;;;2.65;1.85;;;10.70;99.90;;;;;;5063166;28;20037;-86
2021/09/26 00:25:59;;;;;;;2.33;1.77;;;10.70;99.90;;;;;;5061480;28;20025;-86
2021/09/26 00:28:25;;;;;;;2.85;1.77;;;10.70;99.90;;;;;;5059630;28;20558;-86
2021/09/26 00:30:51;;;;;;;3.33;2.40;;;10.70;99.90;;;;;;5058845;28;20124;-88
2021/09/26 00:33:18;;;;;;;2.15;1.98;;;10.80;99.90;;;;;;5039052;28;20049;-84
2021/09/26 00:35:44;;;;;;;4.35;2.13;;;10.80;99.90;;;;;;5035010;28;20025;-84
2021/09/26 00:38:10;;;;;;;2.03;1.70;;;10.70;99.90;;;;;;5033228;28;20360;-84
2021/09/26 00:40:37;;;;;;;1.87;1.53;;;10.70;99.90;;;;;;5015430;28;20026;-85
2021/09/26 00:43:04;;;;;;;3.20;1.70;;;10.70;99.90;;;;;;5015608;28;20386;-84
2021/09/26 00:45:30;;;;;;;3.58;2.00;;;10.70;99.90;;;;;;5033363;28;20021;-84
2021/09/26 00:47:55;;;;;;;6.65;5.15;;;10.70;99.90;;;;;;5039713;28;20053;-84
2021/09/26 00:50:23;;;;;;;3.90;3.38;;;10.70;99.90;;;;;;5015465;28;20028;-84
2021/09/26 00:52:49;;;;;;;6.90;2.70;;;10.80;99.90;;;;;;5041539;28;20537;-86
2021/09/26 00:55:16;;;;;;;3.58;2.05;;;10.80;99.90;;;;;;5035303;28;20040;-84
2021/09/26 00:57:43;;;;;;;2.92;1.80;;;10.80;99.90;;;;;;5053091;28;20024;-86
2021/09/26 01:00:12;;;;;;;2.40;1.73;;;10.80;99.90;;;;;;5035612;28;20513;-84
2021/09/26 01:02:38;;;;;;;3.33;1.50;;;10.70;99.90;;;;;;5052705;28;20032;-85
2021/09/26 01:05:06;;;;;;;3.13;1.70;;;10.70;99.90;;;;;;5052998;28;20025;-86
2021/09/26 01:07:42;;;;;;;3.38;2.00;;;10.70;99.90;;;;;;5052816;28;20025;-83
2021/09/26 01:10:31;;;;;;;3.90;1.75;;;10.70;99.90;;;;;;5052967;28;20483;-83
2021/09/26 01:13:16;;;;;;;2.72;1.83;;;10.80;99.90;;;;;;5053706;28;20017;-83
2021/09/26 01:16:01;;;;;;;3.60;2.40;;;10.80;99.90;;;;;;5054291;28;20055;-85
2021/09/26 01:18:41;;;;;;;3.75;2.20;;;10.80;99.90;;;;;;5053735;28;20069;-85
2021/09/26 01:21:19;;;;;;;4.18;2.10;;;10.80;99.90;;;;;;5052728;28;20064;-83
2021/09/26 01:23:54;;;;;;;5.93;2.22;;;10.80;99.90;;;;;;5054338;28;20029;-85
2021/09/26 01:26:37;;;;;;;2.33;1.55;;;10.70;99.90;;;;;;5057763;28;20386;-82
2021/09/26 01:29:28;;;;;;;2.38;2.17;;;10.70;99.90;;;;;;5057120;28;20029;-85
2021/09/26 01:31:58;;;;;;;3.88;2.03;;;10.70;99.90;;;;;;5056879;28;20025;-83
2021/09/26 01:34:45;;;;;;;4.85;2.70;;;10.60;99.90;;;;;;5057012;28;20017;-84
2021/09/26 01:37:20;;;;;;;6.00;2.97;;;10.60;99.90;;;;;;5058581;28;20025;-85
2021/09/26 01:40:06;;;;;;;3.20;2.25;;;10.60;99.90;;;;;;5066486;28;20044;-83
2021/09/26 01:42:53;;;;;;;4.80;2.30;;;10.60;99.90;;;;;;5058789;28;20021;-85
2021/09/26 01:45:49;;;;;;;2.92;2.22;;;10.60;99.90;;;;;;5059679;28;20104;-83
2021/09/26 01:48:20;;;;;;;4.43;2.45;;;10.60;99.90;;;;;;5057422;28;20033;-83
2021/09/26 01:50:49;;;;;;;3.33;1.73;;;10.70;99.90;;;;;;5056038;28;20021;-84
2021/09/26 01:53:15;;;;;;;3.92;1.80;;;10.70;99.90;;;;;;5037456;28;20055;-83
2021/09/26 01:55:43;;;;;;;2.47;1.58;;;10.70;99.90;;;;;;5054771;28;20021;-84
2021/09/26 01:58:09;;;;;;;;;;;10.70;99.90;;;;;;5054857;28;20017;-82
2021/09/26 02:00:38;;;;;;;2.58;1.70;;;10.70;99.90;;;;;;5054534;28;20520;-81
2021/09/26 02:03:05;;;;;;;2.95;1.70;;;10.70;99.90;;;;;;5054849;28;20430;-81
2021/09/26 02:05:31;;;;;;;2.80;1.80;;;10.70;99.90;;;;;;5054815;28;20049;-86
2021/09/26 02:08:00;;;;;;;5.00;1.63;;;10.70;99.90;;;;;;5037973;28;20534;-83
2021/09/26 02:10:28;;;;;;;2.42;1.60;;;10.70;99.90;;;;;;5056955;28;20040;-82
2021/09/26 02:12:56;;;;;;;2.42;1.27;;;10.70;99.90;;;;;;5055375;28;20013;-83
2021/09/26 02:15:24;;;;;;;3.78;1.60;;;10.50;99.90;;;;;;5054848;28;20049;-86
2021/09/26 02:17:53;;;;;;;2.13;1.33;;;10.40;99.90;;;;;;5054856;28;20054;-84
2021/09/26 02:20:20;;;;;;;1.27;1.10;;;10.30;99.90;;;;;;5059747;28;20037;-87
2021/09/26 02:22:50;;;;;;;1.38;1.05;;;10.20;99.90;;;;;;5060555;28;20047;-84
2021/09/26 02:25:17;;;;;;;1.60;1.10;;;10.20;99.90;;;;;;5054987;28;20037;-84
2021/09/26 02:27:43;;;;;;;1.52;1.00;;;10.30;99.90;;;;;;5054347;28;20383;-84
2021/09/26 02:30:10;;;;;;;2.28;0.95;;;10.30;99.90;;;;;;5055990;28;20025;-88
2021/09/26 02:32:37;;;;;;;2.00;1.17;;;10.50;99.90;;;;;;5056973;28;20013;-84
2021/09/26 02:35:05;;;;;;;1.80;1.13;;;10.50;99.90;;;;;;5055472;28;20029;-85
2021/09/26 02:37:31;;;;;;;2.28;0.70;;;10.50;99.90;;;;;;5064982;28;20017;-87
2021/09/26 02:39:57;;;;;;;3.00;1.05;;;10.60;99.90;;;;;;5067783;28;20041;-89
2021/09/26 02:42:55;;;;;;;2.78;1.00;;;10.50;99.90;;;;;;5058080;28;20024;-89
2021/09/26 02:45:33;;;;;;;2.92;1.30;;;10.50;99.90;;;;;;5037724;28;20028;-87
2021/09/26 02:48:15;;;;;;;1.60;1.20;;;10.50;99.90;;;;;;5070987;28;20020;-87
2021/09/26 02:50:44;;;;;;;3.13;2.22;;;10.40;99.90;;;;;;5063839;28;20025;-85
2021/09/26 02:53:12;;;;;;;1.67;1.05;;;10.40;99.90;;;;;;5009164;28;1501228;-86
2021/09/26 02:55:39;;;;;;;1.70;1.20;;;10.30;99.90;;;;;;5067343;28;20036;-86
2021/09/26 02:58:05;;;;;;;;;;;10.20;99.90;;;;;;5062885;28;20029;-86
2021/09/26 03:00:35;;;;;;;1.67;1.15;;;10.20;99.90;;;;;;5061665;28;20306;-87
2021/09/26 03:03:09;;;;;;;1.77;1.30;;;10.10;99.90;;;;;;5058257;28;20024;-86
2021/09/26 03:05:36;;;;;;;1.63;1.13;;;10.10;99.90;;;;;;5044766;28;20028;-87
2021/09/26 03:08:02;;;;;;;1.27;0.98;;;10.10;99.90;;;;;;5054338;28;20040;-88
2021/09/26 03:10:28;;;;;;;2.00;1.00;;;10.10;99.90;;;;;;5056613;28;20478;-88
2021/09/26 03:12:54;;;;;;;2.58;1.10;;;10.10;99.90;;;;;;5038110;28;20060;-87
2021/09/26 03:15:20;;;;;;;1.05;0.80;;;10.10;99.90;;;;;;5064509;28;20107;-88
2021/09/26 03:17:46;;;;;;;1.85;1.20;;;10.10;99.90;;;;;;5059119;28;20037;-86
2021/09/26 03:20:12;;;;;;;1.88;1.15;;;10.10;99.90;;;;;;5055597;28;20044;-89
2021/09/26 03:22:38;;;;;;;1.05;0.95;;;10.10;99.90;;;;;;5055725;28;20025;-88
2021/09/26 03:25:04;;;;;;;1.85;1.17;;;10.10;99.90;;;;;;5046897;28;20017;-87
2021/09/26 03:27:30;;;;;;;2.35;1.48;;;10.10;99.90;;;;;;5046751;28;20489;-87
2021/09/26 03:29:56;;;;;;;1.75;1.10;;;10.10;99.90;;;;;;5073061;28;20017;-87
2021/09/26 03:32:22;;;;;;;1.85;0.80;;;10.10;99.90;;;;;;5077433;28;20087;-88
2021/09/26 03:34:48;;;;;;;2.35;1.30;;;10.10;99.90;;;;;;5067695;28;20040;-89
2021/09/26 03:37:14;;;;;;;2.20;1.05;;;10.10;99.90;;;;;;5050609;28;20489;-85
2021/09/26 03:39:40;;;;;;;2.15;1.48;;;10.10;99.90;;;;;;5062359;28;20068;-85
2021/09/26 03:42:06;;;;;;;1.83;1.40;;;10.10;99.90;;;;;;5060814;28;20032;-85
2021/09/26 03:44:32;;;;;;;1.45;1.25;;;10.20;99.90;;;;;;5036355;28;20035;-85
2021/09/26 03:46:58;;;;;;;1.42;1.00;;;10.20;99.90;;;;;;5053696;28;20021;-83
2021/09/26 03:49:24;;;;;;;2.67;1.40;;;10.20;99.90;;;;;;5054319;28;20555;-87
2021/09/26 03:51:50;;;;;;;2.38;1.27;;;10.20;99.90;;;;;;5054760;28;20099;-85
2021/09/26 03:54:17;;;;;;;1.52;1.15;;;10.20;99.90;;;;;;5038967;28;20091;-82
2021/09/26 03:56:43;;;;;;;2.97;1.60;;;10.20;99.90;;;;;;5036543;28;20021;-83
2021/09/26 03:59:13;;;;;;;2.25;1.40;;;10.30;99.90;;;;;;5053768;28;20055;-81
2021/09/26 04:01:39;;;;;;;3.15;1.60;;;10.30;99.90;;;;;;5053694;28;20029;-83
2021/09/26 04:04:06;;;;;;;10.32;1.55;;;10.30;99.90;;;;;;5036362;28;20437;-83
2021/09/26 04:06:32;;;;;;;1.98;1.17;;;10.30;99.90;;;;;;5053884;28;20029;-85
2021/09/26 04:08:58;;;;;;;2.42;1.30;;;10.30;99.90;;;;;;5053892;28;20486;-85
2021/09/26 04:11:24;;;;;;;1.88;1.33;;;10.30;99.90;;;;;;5054279;28;20029;-82
2021/09/26 04:13:50;;;;;;;3.47;1.70;;;10.30;99.90;;;;;;5053928;28;20070;-83
2021/09/26 04:16:16;;;;;;;4.05;1.90;;;10.20;99.90;;;;;;5036318;28;20029;-85
2021/09/26 04:18:42;;;;;;;3.28;1.52;;;10.20;99.90;;;;;;5053991;28;20040;-85
2021/09/26 04:21:09;;;;;;;4.47;2.00;;;10.10;99.90;;;;;;5036000;28;20032;-87
2021/09/26 04:23:35;;;;;;;2.42;2.00;;;10.10;99.90;;;;;;5054825;28;20078;-86
2021/09/26 04:26:01;;;;;;;5.72;1.45;;;10.10;99.90;;;;;;5060273;28;20382;-85
2021/09/26 04:28:27;;;;;;;3.90;1.65;;;10.10;99.90;;;;;;5056651;28;20029;-86
2021/09/26 04:30:53;;;;;;;3.60;1.67;;;10.20;99.90;;;;;;5041324;28;20136;-85
2021/09/26 04:33:19;;;;;;;3.83;1.70;;;10.20;99.90;;;;;;5039740;28;20033;-87
2021/09/26 04:35:45;;;;;;;2.33;1.42;;;10.20;99.90;;;;;;5056074;28;20025;-85
2021/09/26 04:38:11;;;;;;;5.55;1.98;;;10.30;99.90;;;;;;5056326;28;20025;-85
2021/09/26 04:40:39;;;;;;;1.55;1.42;;;10.30;99.90;;;;;;5056026;28;20029;-85
2021/09/26 04:43:05;;;;;;;2.17;1.50;;;10.30;99.90;;;;;;5057009;28;20048;-84
2021/09/26 04:45:32;;;;;;;1.45;1.30;;;10.30;99.90;;;;;;5060101;28;20021;-83
2021/09/26 04:47:58;;;;;;;1.35;1.20;;;10.40;99.80;;;;;;5059409;28;20021;-84
2021/09/26 04:50:23;;;;;;;5.43;1.90;;;10.40;99.80;;;;;;5066737;28;20060;-84
2021/09/26 04:52:49;;;;;;;4.25;1.50;;;10.40;99.60;;;;;;5064995;28;20092;-85
2021/09/26 04:55:15;;;;;;;8.27;1.70;;;10.40;99.60;;;;;;5047812;28;20114;-85
2021/09/26 04:57:41;;;;;;;2.00;1.27;;;10.40;99.60;;;;;;5062769;28;20106;-87
2021/09/26 05:00:08;;;;;;;2.60;1.35;;;10.50;99.40;;;;;;5035756;28;20048;-86
2021/09/26 05:02:34;;;;;;;1.63;1.02;;;10.50;99.20;;;;;;5036394;28;20367;-87
2021/09/26 05:04:59;;;;;;;1.95;1.67;;;10.50;99.20;;;;;;5054421;28;20032;-85
2021/09/26 05:07:25;;;;;;;1.00;0.90;;;10.60;99.00;;;;;;5036323;28;20386;-85
2021/09/26 05:09:51;;;;;;;1.98;1.50;;;10.50;98.90;;;;;;5057396;28;20029;-86
2021/09/26 05:12:17;;;;;;;2.42;1.10;;;10.50;98.80;;;;;;5057718;28;20052;-85
2021/09/26 05:14:43;;;;;;;2.15;1.35;;;10.40;99.00;;;;;;5053917;28;20028;-85
2021/09/26 05:17:09;;;;;;;2.55;1.75;;;10.40;99.10;;;;;;5035649;28;20394;-85
2021/09/26 05:19:35;;;;;;;2.72;1.48;;;10.40;99.20;;;;;;5055907;28;20044;-87
2021/09/26 05:22:01;;;;;;;2.90;1.58;;;10.50;99.10;;;;;;5044960;28;20021;-89
2021/09/26 05:24:27;;;;;;;1.70;1.30;;;10.40;98.80;;;;;;5065610;28;20025;-88
2021/09/26 05:26:53;;;;;;;2.65;1.60;;;10.50;99.00;;;;;;5058410;28;20021;-88
2021/09/26 05:29:18;;;;;;;3.08;1.52;;;10.40;99.10;;;;;;5040540;28;20527;-86
2021/09/26 05:31:45;;;;;;;1.80;1.45;;;10.40;99.20;;;;;;5038361;28;20402;-86
2021/09/26 05:34:13;;;;;;;3.25;1.80;;;10.40;99.40;;;;;;5064703;28;20027;-88
2021/09/26 05:36:39;;;;;;;2.78;1.65;;;10.30;99.70;;;;;;5078011;28;20040;-87
2021/09/26 05:39:05;;;;;;;2.45;1.85;;;10.30;99.90;;;;;;5067523;28;20734;-86
2021/09/26 05:41:30;;;;;;;1.70;1.42;;;10.30;99.90;;;;;;5067780;28;20017;-87
2021/09/26 05:43:56;;;;;;;2.92;1.73;;;10.30;99.90;;;;;;5068174;28;20045;-87
2021/09/26 05:46:22;;;;;;;5.90;1.70;;;10.30;99.90;;;;;;5063536;28;20056;-88
2021/09/26 05:48:48;;;;;;;1.67;1.40;;;10.20;99.90;;;;;;5069052;28;20033;-89
2021/09/26 05:51:14;;;;;;;2.22;1.50;;;10.30;99.90;;;;;;5061279;28;20140;-89
2021/09/26 05:53:39;;;;;;;5.30;1.83;;;10.20;99.90;;;;;;5058383;28;20098;-88
2021/09/26 05:56:05;;;;;;;2.85;1.20;;;10.10;99.90;;;;;;5055713;28;20025;-90
2021/09/26 05:58:31;;;;;;;1.95;1.10;;;10.10;99.90;;;;;;5053849;28;20425;-88
2021/09/26 06:00:57;;;;;;;1.67;0.95;;;10.10;99.90;;;;;;5052566;28;20021;-86
2021/09/26 06:03:23;;;;;;;1.40;1.13;;;10.10;99.90;;;;;;5032771;28;20478;-86
2021/09/26 06:05:49;;;;;;;5.75;1.45;;;10.20;99.90;;;;;;5053672;28;20090;-85
2021/09/26 06:08:15;;;;;;;4.07;1.90;;;10.20;99.90;;;;;;5066886;28;20063;-89
2021/09/26 06:10:42;;;;;;;2.97;1.20;;;10.30;99.90;;;;;;5073564;28;20029;-86
2021/09/26 06:13:09;;;;;;;2.13;1.17;;;10.30;99.90;;;;;;5040341;28;20017;-88
2021/09/26 06:15:35;;;;;;;2.08;1.58;;;10.30;99.90;;;;;;5045597;28;20492;-85
2021/09/26 06:18:01;;;;;;;2.92;1.40;;;10.40;99.90;;;;;;5068261;28;20155;-86
2021/09/26 06:20:27;;;;;;;9.20;1.58;;;10.30;99.90;;;;;;5039577;28;20123;-86
2021/09/26 06:22:53;;;;;;;1.40;1.10;;;10.30;99.90;;;;;;5058267;28;20021;-87
2021/09/26 06:25:19;;;;;;;1.83;1.35;;;10.20;99.90;;;;;;5038341;28;20112;-87
2021/09/26 06:27:45;;;;;;;1.63;1.27;;;10.20;99.90;;;;;;5055230;28;20151;-85
2021/09/26 06:30:14;;;;;;;3.40;1.63;;;10.20;99.90;;;;;;5038027;28;20509;-86
2021/09/26 06:32:40;;;;;;;1.02;0.93;;;10.30;99.90;;;;;;5040785;28;20049;-86
2021/09/26 06:35:07;;;;;;;2.53;1.10;;;10.30;99.90;;;;;;5071711;28;20023;-88
2021/09/26 06:37:33;;;;;;;2.58;1.13;;;10.40;99.90;;;;;;5027192;28;20026;-87
2021/09/26 06:39:59;;;;;;;1.65;1.40;;;10.50;99.90;;;;;;5037915;28;20029;-83
2021/09/26 06:42:25;;;;;;;3.58;0.90;;;10.50;98.80;;;;;;5032566;28;20025;-84
2021/09/26 06:44:51;;;;;;;2.42;1.40;;;10.60;98.50;;;;;;5059159;28;20025;-85
2021/09/26 06:47:16;;;;;;;1.70;0.95;;;10.70;98.60;;;;;;5044256;28;20017;-85
2021/09/26 06:49:43;;;;;;;1.05;0.80;;;10.80;98.20;;;;;;5055895;28;20040;-83
2021/09/26 06:52:09;;;;;;;1.88;1.17;;;10.90;97.70;;;;;;5037436;28;20494;-87
2021/09/26 06:54:35;;;;;;;1.80;1.30;;;10.90;97.20;;;;;;5056061;28;20040;-84
2021/09/26 06:57:00;;;;;;;2.78;1.30;;;10.90;97.20;;;;;;5056255;28;20481;-86
2021/09/26 06:59:26;;;;;;;1.02;0.93;;;10.90;97.20;;;;;;5037942;28;20072;-86
2021/09/26 07:01:52;;;;;;;2.17;1.02;;;10.90;97.10;;;;;;5054666;28;20497;-86
2021/09/26 07:04:18;;;;;;;1.98;1.50;;;10.90;97.00;;;;;;5055546;28;20017;-86
2021/09/26 07:06:44;;;;;;;2.67;1.25;;;11.00;97.10;;;;;;5056059;28;20021;-86
2021/09/26 07:09:10;;;;;;;2.33;1.50;;;11.10;96.90;;;;;;5055269;28;20381;-86
2021/09/26 07:11:36;;;;;;;3.00;1.67;;;11.30;96.60;;;;;;5054909;28;20453;-86
2021/09/26 07:14:02;;;;;;;1.63;1.13;;;11.30;96.50;;;;;;5055684;28;20025;-86
2021/09/26 07:16:28;;;;;;;2.38;1.40;;;11.30;96.40;;;;;;5058727;28;20029;-87
2021/09/26 07:18:53;;;;;;;2.63;1.60;;;11.20;96.50;;;;;;5042720;28;20040;-84
2021/09/26 07:21:19;;;;;;;2.33;1.00;;;11.10;96.80;;;;;;5056077;28;20047;-86
2021/09/26 07:23:46;;;;;;;1.40;1.13;;;11.10;96.90;;;;;;5057587;28;20032;-86
2021/09/26 07:26:12;;;;;;;2.17;1.17;;;11.00;96.90;;;;;;5056751;28;20021;-86
2021/09/26 07:28:38;;;;;;;2.97;1.20;;;11.00;96.60;;;;;;5055235;28;20034;-86
2021/09/26 07:31:04;;;;;;;2.70;1.20;;;10.90;96.90;;;;;;5037115;28;20441;-87
2021/09/26 07:33:30;;;;;;;1.40;1.20;;;10.80;97.10;;;;;;5056101;28;20409;-86
2021/09/26 07:35:56;;;;;;;1.42;1.10;;;10.90;97.20;;;;;;5056073;28;20039;-87
2021/09/26 07:38:22;;;;;;;5.65;1.33;;;11.00;97.00;;;;;;5055824;28;20128;-86
2021/09/26 07:40:48;;;;;;;4.25;1.20;;;11.10;96.70;;;;;;5064312;28;20088;-85
2021/09/26 07:43:14;;;;;;;1.65;1.42;;;11.20;96.30;;;;;;5050859;28;20597;-85
2021/09/26 07:45:40;;;;;;;2.00;1.40;;;11.20;96.10;;;;;;5017444;28;20049;-87
2021/09/26 07:48:06;;;;;;;2.40;1.23;;;11.20;95.70;;;;;;5017939;28;20104;-86
2021/09/26 07:50:32;;;;;;;3.58;1.65;;;11.20;96.10;;;;;;5035692;28;20494;-85
2021/09/26 07:52:58;;;;;;;2.80;1.38;;;11.20;95.80;;;;;;5034721;28;20418;-85
2021/09/26 07:55:24;;;;;;;3.00;1.67;;;11.20;95.70;;;;;;5035410;28;20425;-86
2021/09/26 07:57:50;;;;;;;2.25;1.63;;;11.10;95.80;;;;;;5046001;28;20099;-86
2021/09/26 08:00:16;;;;;;;2.30;1.20;;;11.00;96.30;;;;;;5063936;28;20029;-85
2021/09/26 08:02:42;;;;;;;2.05;1.45;;;11.00;96.30;;;;;;5038897;28;20029;-86
2021/09/26 08:05:09;;;;;;;2.85;1.60;;;10.90;96.10;;;;;;5053317;28;20052;-87
2021/09/26 08:07:38;;;;;;;2.10;1.58;;;10.90;96.30;;;;;;5037301;28;20025;-85
2021/09/26 08:10:07;;;;;;;6.18;1.60;;;11.00;96.40;;;;;;5054640;28;20466;-86
2021/09/26 08:12:33;;;;;;;5.97;1.52;;;11.00;96.40;;;;;;5054385;28;20028;-85
2021/09/26 08:14:58;;;;;;;3.47;1.85;;;10.90;96.50;;;;;;5055396;28;20025;-85
2021/09/26 08:17:24;;;;;;;1.77;1.40;;;10.80;96.80;;;;;;5053389;28;20036;-87
2021/09/26 08:19:50;;;;;;;5.53;1.65;;;10.70;97.20;;;;;;5054765;28;20078;-87
2021/09/26 08:22:17;;;;;;;2.92;2.28;;;10.60;97.60;;;;;;5054144;28;20025;-85
2021/09/26 08:24:43;;;;;;;3.50;2.28;;;10.50;98.10;;;;;;5054293;28;20088;-86
2021/09/26 08:27:24;;;;;;;7.07;2.33;;;10.50;98.40;;;;;;5054329;28;20060;-84
2021/09/26 08:29:50;;;;;;;5.00;1.73;;;10.30;98.70;;;;;;5036313;28;20543;-86
2021/09/26 08:32:16;;;;;;;3.65;2.17;;;10.30;98.90;;;;;;5052881;28;20062;-86
2021/09/26 08:34:42;;;;;;;4.22;2.30;;;10.30;99.20;;;;;;5054936;28;20055;-85
2021/09/26 08:37:08;;;;;;;3.63;2.13;;;10.20;99.40;;;;;;5054466;28;20469;-85
2021/09/26 08:39:34;;;;;;;4.10;2.08;;;10.20;99.50;;;;;;5053151;28;20037;-88
2021/09/26 08:42:00;;;;;;;2.65;1.80;;;10.20;99.70;;;;;;5049624;28;20022;-85
2021/09/26 08:44:28;;;;;;;3.05;1.85;;;10.20;99.40;;;;;;5018379;28;20091;-86
2021/09/26 08:46:56;;;;;;;2.08;1.60;;;10.40;98.80;;;;;;5035591;28;20041;-86
2021/09/26 08:49:22;;;;;;;3.20;1.80;;;10.50;98.00;;;;;;5019764;28;20060;-86
2021/09/26 08:51:53;;;;;;;3.05;1.95;;;10.60;98.10;;;;;;5019916;28;20022;-87
2021/09/26 08:54:20;;;;;;;3.25;1.67;;;10.80;97.40;;;;;;5036199;28;20056;-86
2021/09/26 08:56:47;;;;;;;2.92;2.25;;;11.00;97.20;;;;;;5037753;28;20025;-86
2021/09/26 08:59:16;;;;;;;5.78;1.90;;;11.10;96.70;;;;;;5020505;28;20526;-87
2021/09/26 09:01:42;;;;;;;2.53;1.83;;;11.20;95.80;;;;;;5037020;28;20036;-84
2021/09/26 09:04:08;;;;;;;2.97;1.77;;;11.20;96.00;;;;;;5019437;28;20156;-85
2021/09/26 09:06:45;;;;;;;3.78;1.90;;;11.40;95.50;;;;;;5035979;28;20052;-86
2021/09/26 09:09:19;;;;;;;4.72;2.05;;;11.40;95.20;;;;;;5034721;28;20041;-86
2021/09/26 09:12:04;;;;;;;4.32;2.15;;;11.50;94.80;;;;;;5035395;28;20038;-86
2021/09/26 09:15:04;;;;;;;3.13;1.83;;;11.60;94.60;;;;;;5037408;28;20024;-85
2021/09/26 09:17:38;;;;;;;2.20;1.80;;;11.70;94.30;;;;;;5030714;28;20038;-85
2021/09/26 09:20:25;;;;;;;4.85;1.80;;;11.70;94.00;;;;;;5018454;28;20034;-86
2021/09/26 09:22:57;;;;;;;2.60;1.30;;;11.70;93.90;;;;;;5007481;28;20044;-85
2021/09/26 09:25:36;;;;;;;1.40;1.00;;;11.70;93.50;;;;;;5021452;28;20029;-85
2021/09/26 09:28:16;;;;;;;1.55;1.40;;;11.70;93.20;;;;;;5035692;28;20085;-87
2021/09/26 09:30:50;;;;;;;3.03;1.50;;;11.70;93.40;;;;;;5035807;28;20037;-86
2021/09/26 09:33:18;;;;;;;2.60;1.58;;;11.80;92.80;;;;;;5034793;28;20028;-87
2021/09/26 09:35:52;;;;;;;2.55;1.25;;;11.80;92.30;;;;;;5016748;28;20037;-84
2021/09/26 09:38:28;;;;;;;4.50;1.55;;;11.90;92.30;;;;;;5017783;28;20120;-87
2021/09/26 09:40:59;;;;;;;2.97;1.50;;;11.90;92.10;;;;;;5045215;28;20086;-85
2021/09/26 09:43:27;;;;;;;1.40;1.10;;;12.00;92.20;;;;;;5059673;28;20597;-84
2021/09/26 09:45:59;;;;;;;1.25;1.00;;;12.20;91.40;;;;;;5056500;28;20476;-86
2021/09/26 09:48:29;;;;;;;1.00;0.85;;;12.40;90.20;;;;;;5058245;28;20035;-85
2021/09/26 09:51:09;;;;;;;1.35;1.02;;;12.60;90.40;;;;;;5057435;28;20028;-85
2021/09/26 09:53:46;;;;;;;1.75;1.10;;;13.00;89.10;;;;;;5040163;28;20052;-86
2021/09/26 09:56:19;;;;;;;1.95;1.30;;;13.20;87.50;;;;;;5058231;28;20021;-86
2021/09/26 09:58:54;;;;;;;1.63;1.17;;;13.40;87.20;;;;;;5057511;28;20135;-87
2021/09/26 10:01:31;;;;;;;3.35;1.30;;;13.70;86.30;;;;;;5039987;28;20039;-87
2021/09/26 10:03:58;;;;;;;2.08;1.40;;;13.90;84.90;;;;;;5055668;28;20021;-86
2021/09/26 10:06:38;;;;;;;3.03;1.83;;;13.90;85.30;;;;;;5057608;28;20029;-87
2021/09/26 10:09:24;;;;;;;1.73;1.13;;;13.80;85.70;;;;;;5057086;28;20044;-86
2021/09/26 10:11:56;;;;;;;2.33;1.30;;;13.30;88.80;;;;;;5057071;28;20025;-84
2021/09/26 10:14:26;;;;;;;2.67;1.38;;;12.90;90.00;;;;;;5058617;28;20021;-85
2021/09/26 10:16:52;;;;;;;2.08;1.33;;;12.50;90.80;;;;;;5057508;28;20405;-86
2021/09/26 10:19:22;;;;;;;2.03;1.40;;;12.30;91.50;;;;;;5056874;28;20044;-87
2021/09/26 10:21:56;;;;;;;2.55;1.00;;;12.20;92.10;;;;;;5057432;28;20262;-86
2021/09/26 10:24:25;;;;;;;1.17;1.00;;;12.00;92.30;;;;;;5039804;28;20032;-85
2021/09/26 10:26:52;;;;;;;1.90;1.00;;;11.90;92.50;;;;;;5057827;28;20024;-86
2021/09/26 10:29:22;;;;;;;2.70;0.85;;;11.80;92.40;;;;;;5043268;28;20033;-85
2021/09/26 10:31:50;;;;;;;1.27;0.75;;;11.80;92.60;;;;;;5056119;28;20029;-84
2021/09/26 10:34:17;;;;;;;1.30;0.80;;;11.90;92.50;;;;;;5056978;28;20356;-86
2021/09/26 10:36:44;;;;;;;1.55;0.75;;;12.10;92.20;;;;;;5055851;28;20044;-87
2021/09/26 10:39:11;;;;;;;1.83;0.98;;;12.10;92.00;;;;;;5053765;28;20075;-85
2021/09/26 10:42:09;;;;;;;0.95;0.82;;;12.20;92.00;;;;;;5035067;28;20418;-87
2021/09/26 10:44:58;;;;;;;1.63;0.90;;;12.60;91.40;;;;;;5037939;28;20036;-86
2021/09/26 10:47:28;;;;;;;3.63;1.10;;;13.00;90.50;;;;;;5043822;28;20021;-86
2021/09/26 10:50:14;;;;;;;0.70;0.68;;;13.10;89.70;;;;;;5036332;28;20064;-87
2021/09/26 10:53:15;;;;;;;2.13;1.27;;;13.10;88.10;;;;;;5036102;28;20033;-86
2021/09/26 10:55:42;;;;;;;1.52;0.98;;;13.00;88.60;;;;;;5034315;28;20501;-86
2021/09/26 10:58:14;;;;;;;1.77;1.33;;;12.90;88.90;;;;;;5036300;28;20096;-86
2021/09/26 11:00:51;;;;;;;1.88;0.85;;;12.70;88.60;;;;;;5062896;28;20158;-86
2021/09/26 11:03:19;;;;;;;2.30;1.05;;;12.60;89.20;;;;;;5054001;28;20040;-86
2021/09/26 11:05:52;;;;;;;1.58;0.77;;;12.50;89.60;;;;;;5055192;28;20029;-86
2021/09/26 11:08:24;;;;;;;1.60;1.10;;;12.50;90.00;;;;;;5055873;28;20021;-86
2021/09/26 11:10:55;;;;;;;1.23;0.90;;;12.60;90.20;;;;;;5056577;28;20029;-85
2021/09/26 11:13:34;;;;;;;1.58;1.27;;;12.60;89.00;;;;;;5057039;28;20041;-85
2021/09/26 11:16:17;;;;;;;1.70;0.80;;;12.80;89.10;;;;;;5060964;28;20074;-87
2021/09/26 11:18:48;;;;;;;1.08;0.90;;;12.90;87.50;;;;;;5058639;28;20025;-86
2021/09/26 11:21:35;;;;;;;2.05;1.08;;;13.00;87.20;;;;;;5037481;28;20021;-85
2021/09/26 11:24:03;;;;;;;1.73;1.15;;;13.10;87.50;;;;;;5037225;28;20040;-84
2021/09/26 11:27:00;;;;;;;1.95;0.93;;;13.00;88.10;;;;;;5054692;28;20025;-86
2021/09/26 11:29:48;;;;;;;3.92;1.10;;;12.80;89.30;;;;;;5037348;28;20107;-86
2021/09/26 11:32:23;;;;;;;2.00;1.40;;;12.60;90.30;;;;;;5020930;28;20379;-85
2021/09/26 11:34:55;;;;;;;2.90;1.40;;;12.50;90.80;;;;;;5036597;28;20061;-86
2021/09/26 11:37:42;;;;;;;2.13;1.50;;;12.40;91.20;;;;;;5055131;28;20024;-88
2021/09/26 11:40:14;;;;;;;1.73;1.17;;;12.20;91.50;;;;;;5037055;28;20139;-84
2021/09/26 11:42:43;;;;;;;3.53;1.80;;;12.00;91.90;;;;;;5037075;28;20482;-88
2021/09/26 11:45:15;;;;;;;3.03;1.38;;;11.80;92.60;;;;;;5044746;28;20501;-84
2021/09/26 11:47:41;;;;;;;1.90;1.30;;;11.70;93.30;;;;;;5037623;28;20036;-84
2021/09/26 11:50:10;;;;;;;3.75;1.48;;;11.60;93.30;;;;;;5036211;28;20036;-83
2021/09/26 11:52:44;;;;;;;2.45;1.08;;;11.60;93.50;;;;;;5044994;28;20028;-84
2021/09/26 11:55:13;;;;;;;2.92;1.80;;;11.60;93.40;;;;;;5054306;28;20036;-86
2021/09/26 11:57:39;;;;;;;2.35;0.95;;;11.50;93.40;;;;;;5059328;28;20542;-85
2021/09/26 12:00:06;;;;;;;3.55;1.20;;;11.60;93.40;;;;;;5026940;28;20121;-85
2021/09/26 12:02:33;;;;;;;1.85;1.02;;;11.50;93.50;;;;;;5037642;28;20017;-84
2021/09/26 12:05:09;;;;;;;1.98;1.38;;;11.50;93.50;;;;;;5052761;28;20036;-85
2021/09/26 12:07:34;;;;;;;5.28;1.45;;;11.50;93.50;;;;;;5052951;28;20032;-84
2021/09/26 12:10:00;;;;;;;2.53;1.45;;;11.50;93.50;;;;;;5053689;28;20032;-83
2021/09/26 12:12:29;;;;;;;1.50;1.20;;;11.50;93.60;;;;;;5035815;28;20028;-86
2021/09/26 12:15:07;;;;;;;2.13;1.33;;;11.60;93.60;;;;;;5026029;28;20018;-85
2021/09/26 12:17:36;;;;;;;1.77;1.27;;;11.60;93.50;;;;;;5049602;28;20024;-85
2021/09/26 12:20:11;;;;;;;3.17;1.45;;;11.70;93.60;;;;;;5052900;28;20025;-84
2021/09/26 12:22:39;;;;;;;2.88;1.55;;;11.80;93.60;;;;;;5050933;28;20386;-83
2021/09/26 12:25:14;;;;;;;0.85;0.75;;;11.80;93.70;;;;;;5046692;28;20033;-84
2021/09/26 12:28:04;;;;;;;1.60;1.20;;;11.80;93.40;;;;;;5018143;28;20098;-86
2021/09/26 12:30:44;;;;;;;2.00;1.30;;;11.80;93.60;;;;;;5036056;28;20489;-86
2021/09/26 12:33:23;;;;;;;2.70;1.48;;;11.70;93.70;;;;;;5053386;28;20036;-84
2021/09/26 12:36:04;;;;;;;1.92;1.48;;;11.80;93.60;;;;;;5054238;28;20017;-87
2021/09/26 12:38:39;;;;;;;1.40;1.20;;;11.80;93.20;;;;;;5056684;28;20111;-86
2021/09/26 12:41:13;;;;;;;2.75;1.88;;;11.80;93.10;;;;;;5053612;28;20035;-84
2021/09/26 12:43:49;;;;;;;5.13;1.90;;;11.80;93.10;;;;;;5053421;28;20032;-83
2021/09/26 12:46:18;;;;;;;3.03;1.47;;;11.90;93.20;;;;;;5057323;28;20095;-86
2021/09/26 12:48:47;;;;;;;1.20;1.10;;;12.00;93.00;;;;;;5035636;28;20025;-86
2021/09/26 12:51:37;;;;;;;1.23;1.00;;;12.00;92.70;;;;;;5053409;28;20155;-84
2021/09/26 12:54:05;;;;;;;2.75;1.58;;;12.00;92.60;;;;;;5053023;28;20486;-85
2021/09/26 12:56:38;;;;;;;2.28;1.65;;;12.00;92.90;;;;;;5047474;28;20063;-87
2021/09/26 12:59:32;;;;;;;1.20;1.10;;;12.10;92.90;;;;;;5039598;28;20052;-83
2021/09/26 13:02:22;;;;;;;4.00;1.50;;;12.10;92.30;;;;;;5043381;28;20055;-85